Terminal Aerodrome Forecast
Issued by NWS

Current Version | Previous Version | Text Only | Print | Product List | Glossary On
Versions: 1 2 3 4 5 6 7 8 9 10 11 12 13 14 15
000
FTAK31 PAFA 192340
TAFATA
TAF
PATA 192340Z 2000/2024 26010KT P6SM OVC045
     FM200500 24007KT P6SM -SHRA SCT015 OVC035
     FM200900 10005KT P6SM -SHRA BKN015 OVC025=

USA.gov is the U.S. government's official web portal to all federal, state and local government web resources and services.